createdAt,value
2022-09-15T00:01:29.237Z,72.52
2022-09-15T00:03:57.342Z,72.52
2022-09-15T00:06:25.503Z,72.56
2022-09-15T00:08:54.609Z,72.61
2022-09-15T00:11:28.796Z,72.66
2022-09-15T00:14:00.338Z,72.63
2022-09-15T00:16:31.774Z,72.75
2022-09-15T00:19:01.047Z,72.81
2022-09-15T00:21:33.201Z,72.75
2022-09-15T00:24:02.933Z,72.97
2022-09-15T00:26:31.907Z,72.96
2022-09-15T00:29:01.004Z,73.07
2022-09-15T00:31:31.375Z,73.16
2022-09-15T00:34:02.860Z,73.06
2022-09-15T00:36:31.997Z,73.16
2022-09-15T00:39:00.396Z,73.17
2022-09-15T00:41:29.004Z,73.36
2022-09-15T00:44:02.616Z,73.36
2022-09-15T00:46:45.173Z,73.23
2022-09-15T00:49:21.045Z,72.99
2022-09-15T00:51:56.189Z,73.25
2022-09-15T00:54:39.104Z,73.14
2022-09-15T00:57:27.736Z,73.13
2022-09-15T00:59:58.106Z,73.10
2022-09-15T01:02:34.366Z,73.13
2022-09-15T01:05:07.943Z,73.18
2022-09-15T01:07:58.042Z,73.17
2022-09-15T01:10:34.168Z,73.24
2022-09-15T01:13:08.413Z,73.17
2022-09-15T01:16:02.777Z,73.24
2022-09-15T01:18:52.353Z,73.18
2022-09-15T01:21:43.062Z,73.21
2022-09-15T01:24:40.830Z,73.27
2022-09-15T01:27:45.271Z,73.16
2022-09-15T01:30:21.024Z,73.11
2022-09-15T01:33:05.268Z,73.25
2022-09-15T01:36:19.279Z,73.33
2022-09-15T01:39:27.761Z,73.33
2022-09-15T01:42:03.275Z,73.35
2022-09-15T01:44:38.337Z,73.33
2022-09-15T01:47:10.808Z,73.27
2022-09-15T01:49:48.762Z,73.36
2022-09-15T01:52:20.648Z,73.36
2022-09-15T01:54:56.022Z,73.35
2022-09-15T01:57:24.507Z,73.32
2022-09-15T01:59:56.574Z,73.29
2022-09-15T02:02:45.077Z,73.37
2022-09-15T02:05:33.765Z,73.31
2022-09-15T02:08:12.348Z,73.21
2022-09-15T02:10:46.925Z,73.22
2022-09-15T02:13:38.219Z,73.22
2022-09-15T02:16:20.168Z,73.17
2022-09-15T02:19:31.206Z,73.23
2022-09-15T02:22:10.584Z,73.17
2022-09-15T02:24:50.172Z,73.25
2022-09-15T02:27:25.331Z,73.26
2022-09-15T02:29:58.743Z,73.26
2022-09-15T02:32:30.286Z,73.22
2022-09-15T02:35:03.188Z,73.12
2022-09-15T02:37:31.287Z,73.21
2022-09-15T02:40:00.772Z,73.17
2022-09-15T02:42:32.402Z,73.28
2022-09-15T02:45:01.833Z,73.21
2022-09-15T02:47:31.165Z,73.17
2022-09-15T02:49:59.237Z,73.20
2022-09-15T02:52:27.377Z,73.22
2022-09-15T02:54:55.503Z,73.22
2022-09-15T02:57:24.269Z,73.38
2022-09-15T03:00:10.993Z,73.44
2022-09-15T03:02:45.626Z,73.36
2022-09-15T03:05:15.666Z,73.40
2022-09-15T03:07:43.968Z,73.53
2022-09-15T03:10:13.259Z,73.56
2022-09-15T03:12:51.348Z,73.69
2022-09-15T03:15:23.565Z,73.76
2022-09-15T03:17:52.528Z,73.80
2022-09-15T03:20:30.476Z,73.85
2022-09-15T03:22:58.735Z,73.86
2022-09-15T03:25:27.158Z,74.01
2022-09-15T03:27:55.312Z,74.02
2022-09-15T03:30:23.983Z,74.09
2022-09-15T03:32:52.053Z,74.18
2022-09-15T03:35:20.155Z,74.41
2022-09-15T03:37:48.231Z,74.38
2022-09-15T03:40:17.015Z,74.35
2022-09-15T03:42:45.163Z,74.35
2022-09-15T03:45:13.556Z,74.56
2022-09-15T03:47:41.617Z,74.48
2022-09-15T03:50:09.946Z,74.54
2022-09-15T03:52:38.008Z,74.80
2022-09-15T03:55:06.963Z,74.90
2022-09-15T03:57:35.057Z,74.94
2022-09-15T04:00:07.876Z,74.89
2022-09-15T04:02:35.941Z,74.88
2022-09-15T04:05:04.459Z,74.98
2022-09-15T04:07:32.561Z,75.05
2022-09-15T04:10:01.257Z,75.09
2022-09-15T04:12:32.211Z,75.12
2022-09-15T04:15:01.029Z,75.24
2022-09-15T04:17:29.160Z,75.29
2022-09-15T04:19:57.852Z,75.23
2022-09-15T04:22:26.197Z,75.27
2022-09-15T04:24:54.299Z,75.41
2022-09-15T04:27:23.211Z,75.36
2022-09-15T04:29:52.747Z,75.45
2022-09-15T04:32:21.219Z,75.50
2022-09-15T04:34:49.615Z,75.53
2022-09-15T04:37:17.743Z,75.51
2022-09-15T04:39:45.878Z,75.50
2022-09-15T04:42:14.029Z,75.50
2022-09-15T04:44:42.472Z,75.52
2022-09-15T04:47:10.953Z,75.60
2022-09-15T04:49:39.208Z,75.68
2022-09-15T04:52:09.817Z,75.69
2022-09-15T04:54:38.146Z,75.83
2022-09-15T04:57:06.427Z,75.68
2022-09-15T04:59:34.632Z,75.51
2022-09-15T05:02:03.382Z,75.54
2022-09-15T05:04:31.587Z,75.58
2022-09-15T05:06:59.793Z,75.49
2022-09-15T05:09:29.642Z,75.36
2022-09-15T05:11:57.845Z,75.34
2022-09-15T05:14:26.577Z,75.23
2022-09-15T05:16:54.720Z,74.99
2022-09-15T05:19:22.970Z,74.88
2022-09-15T05:21:51.167Z,74.82
2022-09-15T05:24:19.361Z,74.74
2022-09-15T05:26:47.414Z,74.57
2022-09-15T05:29:15.558Z,74.39
2022-09-15T05:31:43.723Z,74.23
2022-09-15T05:34:11.829Z,74.12
2022-09-15T05:36:40.028Z,74.14
2022-09-15T05:39:08.197Z,74.10
2022-09-15T05:41:36.249Z,73.89
2022-09-15T05:44:04.470Z,73.90
2022-09-15T05:46:32.679Z,73.89
2022-09-15T05:49:00.979Z,73.81
2022-09-15T05:51:30.272Z,73.91
2022-09-15T05:53:58.399Z,73.87
2022-09-15T05:56:26.851Z,73.79
2022-09-15T05:58:54.951Z,73.80
2022-09-15T06:01:29.363Z,73.74
2022-09-15T06:03:58.524Z,73.74
2022-09-15T06:06:27.251Z,73.67
2022-09-15T06:08:58.792Z,73.58
2022-09-15T06:11:33.795Z,73.56
2022-09-15T06:14:03.812Z,73.49
2022-09-15T06:16:34.561Z,73.49
2022-09-15T06:19:03.896Z,73.43
2022-09-15T06:21:33.668Z,73.46
2022-09-15T06:24:06.150Z,73.32
2022-09-15T06:26:34.695Z,73.22
2022-09-15T06:29:05.341Z,73.16
2022-09-15T06:31:35.829Z,73.17
2022-09-15T06:34:05.461Z,73.10
2022-09-15T06:36:33.821Z,72.93
2022-09-15T06:39:02.925Z,73.03
2022-09-15T06:41:52.442Z,72.76
2022-09-15T06:44:20.727Z,72.88
2022-09-15T06:46:49.689Z,72.82
2022-09-15T06:49:18.428Z,72.76
2022-09-15T06:51:46.565Z,72.68
2022-09-15T06:54:16.293Z,72.73
2022-09-15T06:56:45.802Z,72.58
2022-09-15T06:59:16.174Z,72.51
2022-09-15T07:01:53.481Z,72.38
2022-09-15T07:04:22.627Z,71.93
2022-09-15T07:06:50.721Z,71.92
2022-09-15T07:09:19.657Z,71.63
2022-09-15T07:11:47.798Z,71.48
2022-09-15T07:14:15.913Z,71.24
2022-09-15T07:16:44.320Z,70.73
2022-09-15T07:19:12.758Z,70.51
2022-09-15T07:21:40.983Z,70.45
2022-09-15T07:24:10.744Z,70.27
2022-09-15T07:26:38.867Z,70.25
2022-09-15T07:29:07.356Z,70.23
2022-09-15T07:31:38.534Z,70.19
2022-09-15T07:34:08.023Z,70.42
2022-09-15T07:36:36.748Z,70.52
2022-09-15T07:39:06.175Z,70.65
2022-09-15T07:41:34.543Z,70.74
2022-09-15T07:44:02.967Z,70.77
2022-09-15T07:46:33.031Z,70.81
2022-09-15T07:49:03.272Z,70.92
2022-09-15T07:51:31.684Z,71.00
2022-09-15T07:54:00.456Z,70.92
2022-09-15T07:56:29.068Z,71.10
2022-09-15T07:58:57.445Z,71.17
2022-09-15T08:01:26.209Z,71.43
2022-09-15T08:03:54.701Z,71.33
2022-09-15T08:06:25.635Z,71.49
2022-09-15T08:08:59.352Z,71.67
2022-09-15T08:11:29.650Z,71.90
2022-09-15T08:14:02.765Z,72.15
2022-09-15T08:16:31.420Z,72.25
2022-09-15T08:18:59.762Z,72.24
2022-09-15T08:21:29.226Z,72.13
2022-09-15T08:24:01.375Z,72.07
2022-09-15T08:26:30.985Z,71.98
2022-09-15T08:28:59.503Z,71.88
2022-09-15T08:31:27.757Z,71.82
2022-09-15T08:33:56.449Z,71.74
2022-09-15T08:36:28.029Z,71.74
2022-09-15T08:38:56.850Z,71.72
2022-09-15T08:41:41.008Z,71.60
2022-09-15T08:44:51.184Z,71.53
2022-09-15T08:47:25.761Z,71.43
2022-09-15T08:50:15.682Z,71.40
2022-09-15T08:53:25.423Z,71.36
2022-09-15T08:55:57.195Z,71.41
2022-09-15T08:58:34.530Z,71.43
2022-09-15T09:01:23.288Z,71.26
2022-09-15T09:04:19.388Z,71.08
2022-09-15T09:07:17.916Z,70.93
2022-09-15T09:09:58.060Z,70.97
2022-09-15T09:12:44.105Z,70.80
2022-09-15T09:15:38.134Z,70.65
2022-09-15T09:18:22.611Z,70.45
2022-09-15T09:21:20.733Z,70.19
2022-09-15T09:24:13.399Z,69.89
2022-09-15T09:26:42.121Z,69.58
2022-09-15T09:29:20.029Z,69.18
2022-09-15T09:31:52.925Z,69.13
2022-09-15T09:34:35.537Z,68.68
2022-09-15T09:37:17.497Z,68.31
2022-09-15T09:39:47.227Z,68.11
2022-09-15T09:42:18.610Z,67.72
2022-09-15T09:44:47.542Z,67.64
2022-09-15T09:47:15.709Z,67.46
2022-09-15T09:49:50.007Z,66.89
2022-09-15T09:52:37.771Z,66.75
2022-09-15T09:55:27.207Z,66.39
2022-09-15T09:58:13.128Z,66.19
2022-09-15T10:00:41.775Z,65.57
2022-09-15T10:03:37.904Z,65.33
2022-09-15T10:06:22.325Z,65.27
2022-09-15T10:09:00.021Z,64.98
2022-09-15T10:11:46.238Z,64.95
2022-09-15T10:14:34.580Z,64.86
2022-09-15T10:17:19.521Z,64.47
2022-09-15T10:19:59.159Z,64.34
2022-09-15T10:22:33.100Z,64.42
2022-09-15T10:25:23.998Z,64.16
2022-09-15T10:28:18.144Z,64.00
2022-09-15T10:31:31.931Z,63.81
2022-09-15T10:34:23.130Z,63.86
2022-09-15T10:37:07.231Z,63.96
2022-09-15T10:39:58.321Z,63.82
2022-09-15T10:42:29.605Z,64.00
2022-09-15T10:45:16.698Z,63.86
2022-09-15T10:47:57.026Z,63.45
2022-09-15T10:50:51.310Z,63.58
2022-09-15T10:54:18.384Z,63.62
2022-09-15T10:56:54.300Z,63.55
2022-09-15T10:59:44.857Z,63.41
2022-09-15T11:03:00.670Z,63.40
2022-09-15T11:06:02.398Z,63.52
2022-09-15T11:08:51.586Z,63.25
2022-09-15T11:12:03.774Z,63.06
2022-09-15T11:15:12.291Z,62.92
2022-09-15T11:18:00.127Z,62.89
2022-09-15T11:20:55.904Z,62.71
2022-09-15T11:23:50.334Z,62.48
2022-09-15T11:26:36.999Z,62.32
2022-09-15T11:29:20.156Z,62.14
2022-09-15T11:31:55.937Z,62.61
2022-09-15T11:34:54.391Z,62.56
2022-09-15T11:37:44.517Z,62.70
2022-09-15T11:40:15.999Z,62.56
2022-09-15T11:43:13.808Z,62.52
2022-09-15T11:45:49.969Z,62.49
2022-09-15T11:48:47.581Z,62.47
2022-09-15T11:51:20.115Z,62.43
2022-09-15T11:53:58.933Z,62.27
2022-09-15T11:56:40.661Z,62.22
2022-09-15T11:59:42.409Z,61.74
2022-09-15T12:02:23.896Z,61.55
2022-09-15T12:05:17.902Z,61.65
2022-09-15T12:07:54.987Z,61.52
2022-09-15T12:10:34.039Z,61.21
2022-09-15T12:13:02.940Z,61.35
2022-09-15T12:15:32.249Z,61.19
2022-09-15T12:18:41.951Z,61.24
2022-09-15T12:21:41.623Z,60.99
2022-09-15T12:24:52.968Z,60.17
2022-09-15T12:27:22.304Z,60.02
2022-09-15T12:30:01.240Z,59.88
2022-09-15T12:32:33.373Z,59.57
2022-09-15T12:35:17.739Z,59.52
2022-09-15T12:37:58.620Z,58.55
2022-09-15T12:40:35.509Z,58.76
2022-09-15T12:43:25.769Z,58.60
2022-09-15T12:46:00.776Z,58.30
2022-09-15T12:48:34.116Z,58.17
2022-09-15T12:51:10.426Z,57.84
2022-09-15T12:54:08.686Z,57.70
2022-09-15T12:56:37.025Z,57.62
2022-09-15T12:59:08.203Z,57.00
2022-09-15T13:01:50.701Z,56.98
2022-09-15T13:04:42.143Z,57.18
2022-09-15T13:07:16.046Z,57.01
2022-09-15T13:10:09.141Z,56.89
2022-09-15T13:12:44.140Z,57.02
2022-09-15T13:15:16.161Z,56.81
2022-09-15T13:17:46.460Z,56.61
2022-09-15T13:20:26.705Z,56.45
2022-09-15T13:22:56.840Z,55.84
2022-09-15T13:25:29.711Z,56.06
2022-09-15T13:28:01.315Z,55.86
2022-09-15T13:31:05.105Z,55.56
2022-09-15T13:40:37.913Z,55.56
2022-09-15T13:43:30.751Z,55.54
2022-09-15T13:46:48.081Z,55.03
2022-09-15T13:49:35.788Z,54.98
2022-09-15T13:52:13.269Z,54.80
2022-09-15T13:55:23.312Z,54.70
2022-09-15T14:00:53.572Z,54.72
2022-09-15T14:03:48.683Z,54.66
2022-09-15T14:06:33.680Z,54.83
2022-09-15T14:09:26.800Z,54.55
2022-09-15T14:11:59.535Z,54.57
2022-09-15T14:14:27.397Z,54.54
2022-09-15T14:16:57.164Z,54.78
2022-09-15T14:19:39.072Z,54.52
2022-09-15T14:22:28.732Z,54.65
2022-09-15T14:24:59.224Z,54.83
2022-09-15T14:27:34.436Z,55.01
2022-09-15T14:30:08.621Z,55.77
2022-09-15T14:32:45.817Z,56.13
2022-09-15T14:35:20.409Z,56.51
2022-09-15T14:37:54.422Z,56.72
2022-09-15T14:40:28.658Z,56.75
2022-09-15T14:42:58.366Z,56.64
2022-09-15T14:48:30.751Z,55.84
2022-09-15T14:51:08.796Z,55.54
2022-09-15T14:53:40.456Z,55.30
2022-09-15T14:56:17.754Z,54.99
2022-09-15T14:58:56.193Z,54.84
2022-09-15T15:01:24.249Z,54.82
2022-09-15T15:04:16.830Z,54.86
2022-09-15T15:07:23.927Z,55.08
2022-09-15T15:10:04.443Z,55.03
2022-09-15T15:12:39.552Z,54.97
2022-09-15T15:15:11.838Z,54.93
2022-09-15T15:17:49.906Z,54.85
2022-09-15T15:20:25.671Z,55.06
2022-09-15T15:23:03.940Z,54.89
2022-09-15T15:25:32.452Z,54.99
2022-09-15T15:28:01.511Z,55.05
2022-09-15T15:30:32.539Z,55.19
2022-09-15T15:33:24.275Z,55.35
2022-09-15T15:36:08.309Z,55.47
2022-09-15T15:38:57.230Z,55.43
2022-09-15T15:41:31.506Z,55.61
2022-09-15T15:44:10.130Z,55.65
2022-09-15T15:47:13.109Z,55.70
2022-09-15T15:49:56.224Z,56.04
2022-09-15T15:52:29.391Z,56.13
2022-09-15T15:54:57.484Z,56.17
2022-09-15T15:57:30.347Z,56.40
2022-09-15T16:00:00.623Z,56.57
2022-09-15T16:02:31.581Z,56.67
2022-09-15T16:04:59.975Z,56.78
2022-09-15T16:07:33.194Z,56.81
2022-09-15T16:10:02.430Z,57.06
2022-09-15T16:12:33.212Z,57.27
2022-09-15T16:15:20.685Z,57.26
2022-09-15T16:17:49.775Z,57.48
2022-09-15T16:20:24.404Z,57.64
2022-09-15T16:22:52.519Z,57.67
2022-09-15T16:25:48.054Z,57.98
2022-09-15T16:28:17.257Z,58.20
2022-09-15T16:30:45.621Z,58.27
2022-09-15T16:33:16.121Z,58.49
2022-09-15T16:36:03.959Z,58.27
2022-09-15T16:38:33.228Z,58.58
2022-09-15T16:41:03.615Z,58.58
2022-09-15T16:43:31.829Z,58.87
2022-09-15T16:45:59.942Z,58.97
2022-09-15T16:48:28.054Z,59.07
2022-09-15T16:51:17.249Z,59.19
2022-09-15T16:53:46.176Z,59.21
2022-09-15T16:56:15.669Z,59.36
2022-09-15T16:58:44.717Z,59.40
2022-09-15T17:01:18.760Z,59.54
2022-09-15T17:03:48.231Z,59.44
2022-09-15T17:06:18.771Z,59.54
2022-09-15T17:08:46.860Z,59.50
2022-09-15T17:11:18.624Z,59.61
2022-09-15T17:13:46.971Z,59.83
2022-09-15T17:16:19.629Z,60.04
2022-09-15T17:18:48.444Z,60.10
2022-09-15T17:21:18.748Z,60.30
2022-09-15T17:23:49.627Z,60.23
2022-09-15T17:26:27.583Z,60.45
2022-09-15T17:28:59.445Z,60.54
2022-09-15T17:31:31.316Z,60.53
2022-09-15T17:34:00.922Z,60.42
2022-09-15T17:36:29.012Z,60.31
2022-09-15T17:38:57.092Z,60.40
2022-09-15T17:41:25.244Z,60.35
2022-09-15T17:43:54.490Z,60.71
2022-09-15T17:46:22.954Z,60.74
2022-09-15T17:48:51.102Z,60.69
2022-09-15T17:51:19.241Z,60.98
2022-09-15T17:53:47.885Z,60.89
2022-09-15T17:56:16.990Z,61.47
2022-09-15T17:58:46.007Z,61.47
2022-09-15T18:01:15.481Z,61.55
2022-09-15T18:03:45.127Z,61.69
2022-09-15T18:06:13.801Z,61.94
2022-09-15T18:08:41.969Z,62.01
2022-09-15T18:11:14.287Z,62.34
2022-09-15T18:13:43.093Z,62.48
2022-09-15T18:16:14.009Z,62.64
2022-09-15T18:18:42.989Z,62.80
2022-09-15T18:21:28.705Z,63.10
2022-09-15T18:23:57.245Z,63.16
2022-09-15T18:26:26.647Z,63.48
2022-09-15T18:28:56.538Z,63.87
2022-09-15T18:31:25.117Z,64.03
2022-09-15T18:33:53.418Z,64.25
2022-09-15T18:36:21.695Z,64.52
2022-09-15T18:38:49.797Z,64.77
2022-09-15T18:41:18.610Z,64.74
2022-09-15T18:43:49.425Z,65.20
2022-09-15T18:46:18.462Z,65.36
2022-09-15T18:48:46.680Z,65.60
2022-09-15T18:51:23.604Z,65.89
2022-09-15T18:53:54.202Z,66.31
2022-09-15T18:56:22.820Z,66.56
2022-09-15T18:58:53.947Z,66.65
2022-09-15T19:01:22.782Z,66.69
2022-09-15T19:03:51.186Z,66.67
2022-09-15T19:06:19.342Z,66.77
2022-09-15T19:08:47.489Z,66.63
2022-09-15T19:11:16.182Z,66.72
2022-09-15T19:13:44.674Z,66.73
2022-09-15T19:16:12.965Z,66.73
2022-09-15T19:18:41.131Z,66.54
2022-09-15T19:21:11.810Z,66.48
2022-09-15T19:23:39.992Z,66.56
2022-09-15T19:26:16.962Z,66.39
2022-09-15T19:28:50.015Z,66.49
2022-09-15T19:31:18.342Z,66.38
2022-09-15T19:33:47.914Z,66.37
2022-09-15T19:36:27.840Z,66.33
2022-09-15T19:39:00.299Z,66.33
2022-09-15T19:41:28.758Z,66.55
2022-09-15T19:43:57.579Z,66.36
2022-09-15T19:46:25.941Z,66.41
2022-09-15T19:48:54.771Z,66.22
2022-09-15T19:51:23.979Z,66.03
2022-09-15T19:53:56.478Z,66.06
2022-09-15T19:56:26.747Z,66.24
2022-09-15T19:58:57.088Z,66.04
2022-09-15T20:01:29.338Z,65.97
2022-09-15T20:03:57.616Z,66.23
2022-09-15T20:06:31.545Z,66.33
2022-09-15T20:09:00.877Z,66.23
2022-09-15T20:11:30.919Z,66.54
2022-09-15T20:14:01.178Z,66.51
2022-09-15T20:16:30.414Z,66.68
2022-09-15T20:18:59.967Z,66.85
2022-09-15T20:21:49.314Z,66.93
2022-09-15T20:24:20.666Z,67.15
2022-09-15T20:26:48.800Z,67.59
2022-09-15T20:29:17.709Z,67.68
2022-09-15T20:31:46.983Z,67.76
2022-09-15T20:34:15.970Z,67.98
2022-09-15T20:36:45.062Z,68.22
2022-09-15T20:39:15.648Z,68.36
2022-09-15T20:41:46.899Z,68.54
2022-09-15T20:44:15.792Z,68.63
2022-09-15T20:46:44.404Z,68.52
2022-09-15T20:49:12.940Z,68.57
2022-09-15T20:51:41.132Z,68.54
2022-09-15T20:54:10.991Z,68.58
2022-09-15T20:56:39.144Z,68.49
2022-09-15T20:59:10.471Z,68.45
2022-09-15T21:01:39.968Z,68.52
2022-09-15T21:04:10.194Z,68.71
2022-09-15T21:06:38.757Z,68.82
2022-09-15T21:09:07.529Z,69.03
2022-09-15T21:11:36.879Z,69.16
2022-09-15T21:14:05.089Z,69.29
2022-09-15T21:16:35.047Z,69.52
2022-09-15T21:19:03.868Z,69.68
2022-09-15T21:21:33.624Z,69.69
2022-09-15T21:24:10.532Z,69.86
2022-09-15T21:26:59.754Z,69.95
2022-09-15T21:29:28.918Z,70.34
2022-09-15T21:31:57.764Z,70.68
2022-09-15T21:34:26.463Z,70.89
2022-09-15T21:36:54.707Z,71.16
2022-09-15T21:39:23.403Z,71.03
2022-09-15T21:41:51.480Z,70.95
2022-09-15T21:44:19.603Z,70.92
2022-09-15T21:46:48.249Z,71.05
2022-09-15T21:49:18.147Z,70.86
2022-09-15T21:51:46.506Z,70.83
2022-09-15T21:54:15.467Z,70.66
2022-09-15T21:56:43.661Z,70.60
2022-09-15T21:59:11.910Z,70.60
2022-09-15T22:01:41.666Z,70.49
2022-09-15T22:04:10.674Z,70.59
2022-09-15T22:06:41.438Z,70.48
2022-09-15T22:09:21.792Z,70.47
2022-09-15T22:11:50.089Z,70.37
2022-09-15T22:14:18.549Z,70.30
2022-09-15T22:16:46.669Z,70.36
2022-09-15T22:19:14.846Z,70.27
2022-09-15T22:21:43.055Z,70.41
2022-09-15T22:24:13.627Z,70.33
2022-09-15T22:26:42.896Z,70.45
2022-09-15T22:29:11.800Z,70.23
2022-09-15T22:31:40.915Z,70.12
2022-09-15T22:34:09.523Z,70.20
2022-09-15T22:36:37.858Z,70.09
2022-09-15T22:39:06.725Z,70.10
2022-09-15T22:41:39.239Z,70.16
2022-09-15T22:44:16.945Z,70.12
2022-09-15T22:46:45.770Z,69.97
2022-09-15T22:49:13.899Z,70.04
2022-09-15T22:51:42.077Z,70.15
2022-09-15T22:54:10.221Z,70.27
2022-09-15T22:56:38.389Z,70.27
2022-09-15T22:59:06.468Z,70.35
2022-09-15T23:01:34.689Z,70.46
2022-09-15T23:04:03.671Z,70.49
2022-09-15T23:06:34.437Z,70.62
2022-09-15T23:09:07.818Z,70.65
2022-09-15T23:11:39.858Z,70.82
2022-09-15T23:14:15.358Z,71.08
2022-09-15T23:16:44.309Z,71.12
2022-09-15T23:19:14.128Z,71.30
2022-09-15T23:21:42.285Z,71.35
2022-09-15T23:24:12.615Z,71.71
2022-09-15T23:26:40.837Z,71.67
2022-09-15T23:29:10.059Z,71.81
2022-09-15T23:31:38.302Z,72.07
2022-09-15T23:34:06.479Z,72.06
2022-09-15T23:36:34.639Z,72.18
2022-09-15T23:39:03.914Z,72.45
2022-09-15T23:41:32.069Z,72.24
2022-09-15T23:44:00.236Z,72.60
2022-09-15T23:46:28.790Z,73.23
2022-09-15T23:48:56.996Z,73.47
2022-09-15T23:51:25.714Z,73.30
2022-09-15T23:53:53.920Z,73.63
2022-09-15T23:56:22.105Z,73.87
2022-09-15T23:58:50.376Z,73.93
